createdAt,value
2023-05-01T00:01:46.526Z,5.87
2023-05-01T00:04:14.541Z,5.70
2023-05-01T00:06:42.563Z,5.77
2023-05-01T00:09:10.669Z,5.73
2023-05-01T00:11:38.577Z,5.93
2023-05-01T00:14:07.868Z,6.93
2023-05-01T00:16:36.661Z,6.70
2023-05-01T00:19:05.124Z,6.07
2023-05-01T00:21:33.083Z,6.07
2023-05-01T00:24:01.019Z,6.13
2023-05-01T00:26:31.342Z,6.73
2023-05-01T00:28:59.682Z,6.03
2023-05-01T00:31:28.975Z,6.07
2023-05-01T00:33:57.297Z,6.47
2023-05-01T00:36:25.181Z,7.00
2023-05-01T00:38:53.037Z,6.30
2023-05-01T00:41:21.394Z,6.00
2023-05-01T00:43:49.238Z,6.47
2023-05-01T00:46:18.346Z,6.97
2023-05-01T00:48:47.640Z,7.23
2023-05-01T00:51:15.949Z,7.30
2023-05-01T00:53:44.827Z,6.33
2023-05-01T00:56:12.822Z,6.13
2023-05-01T00:58:42.150Z,6.10
2023-05-01T01:01:10.149Z,6.60
2023-05-01T01:03:38.191Z,6.20
2023-05-01T01:06:13.616Z,6.13
2023-05-01T01:08:44.584Z,7.60
2023-05-01T01:11:21.761Z,6.40
2023-05-01T01:13:57.147Z,6.40
2023-05-01T01:16:36.126Z,6.60
2023-05-01T01:19:17.151Z,6.60
2023-05-01T01:21:50.405Z,6.37
2023-05-01T01:24:47.772Z,6.37
2023-05-01T01:27:58.932Z,10.37
2023-05-01T01:31:14.407Z,6.80
2023-05-01T01:34:05.087Z,7.47
2023-05-01T01:36:40.202Z,6.80
2023-05-01T01:39:14.238Z,6.40
2023-05-01T01:41:46.524Z,7.20
2023-05-01T01:44:21.224Z,6.57
2023-05-01T01:46:51.935Z,7.63
2023-05-01T01:49:25.613Z,6.93
2023-05-01T01:51:55.702Z,6.90
2023-05-01T01:54:30.537Z,7.00
2023-05-01T01:57:03.452Z,9.07
2023-05-01T01:59:34.856Z,6.83
2023-05-01T02:02:05.086Z,8.17
2023-05-01T02:04:36.901Z,8.37
2023-05-01T02:07:06.966Z,7.57
2023-05-01T02:09:36.582Z,7.40
2023-05-01T02:12:07.658Z,7.17
2023-05-01T02:14:36.862Z,7.70
2023-05-01T02:17:05.999Z,7.20
2023-05-01T02:19:36.482Z,6.70
2023-05-01T02:22:06.611Z,7.60
2023-05-01T02:24:37.319Z,7.57
2023-05-01T02:27:09.852Z,7.30
2023-05-01T02:29:37.830Z,7.30
2023-05-01T02:32:06.003Z,7.50
2023-05-01T02:34:37.024Z,7.57
2023-05-01T02:37:07.381Z,8.03
2023-05-01T02:39:35.966Z,7.83
2023-05-01T02:42:05.729Z,8.20
2023-05-01T02:44:40.003Z,7.87
2023-05-01T02:47:10.232Z,8.40
2023-05-01T02:49:40.577Z,8.03
2023-05-01T02:52:08.842Z,7.80
2023-05-01T02:54:37.477Z,7.80
2023-05-01T02:57:05.771Z,7.43
2023-05-01T02:59:33.954Z,8.30
2023-05-01T03:02:02.076Z,9.13
2023-05-01T03:04:30.012Z,7.93
2023-05-01T03:06:59.440Z,8.23
2023-05-01T03:09:27.358Z,8.00
2023-05-01T03:11:55.205Z,8.37
2023-05-01T03:14:23.073Z,8.83
2023-05-01T03:16:51.067Z,9.07
2023-05-01T03:19:19.002Z,9.10
2023-05-01T03:21:46.932Z,8.33
2023-05-01T03:24:16.614Z,8.23
2023-05-01T03:26:44.623Z,8.67
2023-05-01T03:29:13.398Z,8.17
2023-05-01T03:31:41.360Z,8.57
2023-05-01T03:34:09.337Z,9.47
2023-05-01T03:36:37.530Z,7.80
2023-05-01T03:39:06.622Z,8.23
2023-05-01T03:41:36.004Z,7.83
2023-05-01T03:44:03.899Z,8.63
2023-05-01T03:46:31.854Z,7.97
2023-05-01T03:48:59.841Z,7.53
2023-05-01T03:51:28.083Z,8.50
2023-05-01T03:53:58.709Z,10.23
2023-05-01T03:56:26.882Z,8.47
2023-05-01T03:58:57.736Z,8.30
2023-05-01T04:01:26.429Z,8.90
2023-05-01T04:03:54.505Z,8.97
2023-05-01T04:06:23.067Z,9.10
2023-05-01T04:08:51.174Z,8.77
2023-05-01T04:11:19.000Z,9.53
2023-05-01T04:13:47.100Z,9.00
2023-05-01T04:16:16.389Z,9.50
2023-05-01T04:18:44.294Z,9.37
2023-05-01T04:21:13.262Z,8.90
2023-05-01T04:23:41.284Z,9.97
2023-05-01T04:26:09.346Z,9.03
2023-05-01T04:28:37.230Z,8.37
2023-05-01T04:31:05.150Z,10.20
2023-05-01T04:33:34.454Z,9.33
2023-05-01T04:36:02.496Z,8.97
2023-05-01T04:38:30.399Z,9.13
2023-05-01T04:40:58.385Z,8.27
2023-05-01T04:43:26.334Z,8.50
2023-05-01T04:45:55.269Z,8.73
2023-05-01T04:48:23.236Z,8.40
2023-05-01T04:50:52.565Z,9.00
2023-05-01T04:53:20.432Z,8.83
2023-05-01T04:55:48.321Z,9.40
2023-05-01T04:58:16.215Z,9.60
2023-05-01T05:00:44.043Z,10.50
2023-05-01T05:03:12.018Z,8.87
2023-05-01T05:05:40.007Z,8.40
2023-05-01T05:08:09.355Z,8.93
2023-05-01T05:10:37.386Z,9.43
2023-05-01T05:13:05.233Z,10.13
2023-05-01T05:15:33.125Z,10.37
2023-05-01T05:18:01.080Z,8.43
2023-05-01T05:20:28.968Z,8.77
2023-05-01T05:22:56.820Z,9.33
2023-05-01T05:25:26.186Z,10.20
2023-05-01T05:27:54.212Z,8.80
2023-05-01T05:30:22.330Z,9.10
2023-05-01T05:32:50.224Z,9.43
2023-05-01T05:35:18.412Z,9.00
2023-05-01T05:37:46.494Z,9.83
2023-05-01T05:40:14.714Z,9.87
2023-05-01T05:42:43.946Z,12.30
2023-05-01T05:45:12.286Z,10.40
2023-05-01T05:47:41.072Z,9.53
2023-05-01T05:50:10.012Z,10.77
2023-05-01T05:52:37.900Z,10.00
2023-05-01T05:55:06.871Z,10.20
2023-05-01T05:57:37.172Z,10.27
2023-05-01T06:00:07.780Z,10.00
2023-05-01T06:02:35.861Z,10.70
2023-05-01T06:05:03.983Z,9.93
2023-05-01T06:07:31.982Z,9.83
2023-05-01T06:10:04.157Z,10.50
2023-05-01T06:12:33.714Z,10.40
2023-05-01T06:15:03.983Z,10.50
2023-05-01T06:17:34.563Z,9.57
2023-05-01T06:20:05.439Z,9.93
2023-05-01T06:22:33.328Z,9.40
2023-05-01T06:25:01.707Z,10.33
2023-05-01T06:27:29.543Z,10.13
2023-05-01T06:29:57.673Z,9.70
2023-05-01T06:32:25.771Z,10.27
2023-05-01T06:34:55.080Z,9.90
2023-05-01T06:37:23.350Z,10.30
2023-05-01T06:39:51.176Z,9.40
2023-05-01T06:42:21.416Z,10.77
2023-05-01T06:44:49.250Z,9.90
2023-05-01T06:47:17.116Z,10.73
2023-05-01T06:49:44.976Z,11.30
2023-05-01T06:52:14.206Z,10.70
2023-05-01T06:54:42.043Z,10.60
2023-05-01T06:57:09.921Z,10.10
2023-05-01T06:59:37.758Z,11.20
2023-05-01T07:02:05.784Z,11.43
2023-05-01T07:04:33.950Z,11.03
2023-05-01T07:07:03.021Z,10.70
2023-05-01T07:09:32.287Z,10.30
2023-05-01T07:12:00.506Z,10.70
2023-05-01T07:14:28.370Z,10.13
2023-05-01T07:16:56.341Z,10.23
2023-05-01T07:19:24.231Z,10.80
2023-05-01T07:21:52.082Z,10.80
2023-05-01T07:24:20.520Z,10.67
2023-05-01T07:26:49.781Z,10.90
2023-05-01T07:29:17.635Z,10.30
2023-05-01T07:31:45.727Z,10.67
2023-05-01T07:34:13.801Z,10.67
2023-05-01T07:36:41.714Z,10.70
2023-05-01T07:39:09.613Z,11.13
2023-05-01T07:41:37.446Z,10.73
2023-05-01T07:44:06.865Z,10.50
2023-05-01T07:46:35.280Z,11.67
2023-05-01T07:49:04.278Z,10.67
2023-05-01T07:51:32.467Z,11.97
2023-05-01T07:54:03.562Z,10.50
2023-05-01T07:56:32.037Z,10.33
2023-05-01T07:58:59.958Z,9.80
2023-05-01T08:01:29.312Z,9.60
2023-05-01T08:03:57.329Z,10.10
2023-05-01T08:06:25.295Z,9.33
2023-05-01T08:08:53.265Z,9.37
2023-05-01T08:11:21.117Z,9.83
2023-05-01T08:13:49.354Z,9.33
2023-05-01T08:16:18.153Z,9.30
2023-05-01T08:18:48.413Z,8.90
2023-05-01T08:21:16.241Z,8.13
2023-05-01T08:23:44.118Z,7.40
2023-05-01T08:26:11.982Z,7.93
2023-05-01T08:28:39.946Z,8.05
2023-05-01T08:31:07.854Z,7.73
2023-05-01T08:33:35.748Z,7.87
2023-05-01T08:36:05.424Z,8.13
2023-05-01T08:38:33.445Z,8.07
2023-05-01T08:41:01.861Z,7.25
2023-05-01T08:43:31.870Z,6.95
2023-05-01T08:46:01.128Z,8.02
2023-05-01T08:48:30.221Z,7.47
2023-05-01T08:51:00.054Z,7.25
2023-05-01T08:53:30.188Z,7.78
2023-05-01T08:55:59.875Z,6.97
2023-05-01T08:58:29.278Z,7.32
2023-05-01T09:00:58.414Z,7.07
2023-05-01T09:03:28.381Z,7.00
2023-05-01T09:05:57.390Z,7.00
2023-05-01T09:08:25.271Z,7.78
2023-05-01T09:10:57.907Z,8.88
2023-05-01T09:13:26.828Z,7.45
2023-05-01T09:15:54.739Z,7.05
2023-05-01T09:18:22.684Z,7.00
2023-05-01T09:20:50.787Z,7.15
2023-05-01T09:23:20.248Z,6.13
2023-05-01T09:25:51.430Z,6.78
2023-05-01T09:28:41.634Z,7.22
2023-05-01T09:31:22.841Z,6.82
2023-05-01T09:33:55.215Z,7.03
2023-05-01T09:36:24.766Z,6.93
2023-05-01T09:38:52.923Z,7.05
2023-05-01T09:41:22.430Z,7.50
2023-05-01T09:43:55.763Z,6.67
2023-05-01T09:46:24.767Z,6.53
2023-05-01T09:49:00.022Z,6.53
2023-05-01T09:51:29.314Z,6.70
2023-05-01T09:53:58.701Z,6.63
2023-05-01T09:56:27.958Z,6.53
2023-05-01T09:58:58.820Z,6.75
2023-05-01T10:01:40.611Z,6.65
2023-05-01T10:04:10.001Z,6.70
2023-05-01T10:06:38.204Z,6.65
2023-05-01T10:09:10.860Z,6.72
2023-05-01T10:11:53.765Z,6.93
2023-05-01T10:14:24.366Z,6.53
2023-05-01T10:16:53.286Z,6.07
2023-05-01T10:19:22.218Z,6.47
2023-05-01T10:21:50.534Z,6.60
2023-05-01T10:24:18.683Z,6.63
2023-05-01T10:26:50.067Z,7.22
2023-05-01T10:29:20.208Z,6.88
2023-05-01T10:31:49.556Z,6.78
2023-05-01T10:34:19.435Z,6.55
2023-05-01T10:36:56.421Z,7.13
2023-05-01T10:39:33.998Z,7.65
2023-05-01T10:42:04.877Z,6.90
2023-05-01T10:44:34.785Z,6.70
2023-05-01T10:47:37.832Z,6.05
2023-05-01T10:50:08.841Z,5.90
2023-05-01T10:53:14.618Z,6.32
2023-05-01T10:55:43.943Z,6.03
2023-05-01T10:58:12.271Z,6.28
2023-05-01T11:00:40.218Z,5.50
2023-05-01T11:03:36.601Z,6.22
2023-05-01T11:06:09.656Z,6.10
2023-05-01T11:08:39.844Z,6.40
2023-05-01T11:11:41.241Z,6.47
2023-05-01T11:14:11.033Z,6.15
2023-05-01T11:16:43.030Z,6.22
2023-05-01T11:19:12.494Z,6.28
2023-05-01T11:21:42.165Z,6.15
2023-05-01T11:24:10.641Z,5.88
2023-05-01T11:26:40.298Z,6.15
2023-05-01T11:29:10.298Z,5.10
2023-05-01T11:31:38.821Z,4.85
2023-05-01T11:34:07.748Z,4.10
2023-05-01T11:36:50.379Z,5.82
2023-05-01T11:39:19.377Z,4.05
2023-05-01T11:41:47.909Z,3.88
2023-05-01T11:44:17.423Z,4.00
2023-05-01T11:46:45.727Z,4.43
2023-05-01T11:49:13.628Z,4.68
2023-05-01T11:51:41.568Z,4.93
2023-05-01T11:54:15.537Z,3.85
2023-05-01T11:56:44.002Z,3.78
2023-05-01T11:59:13.335Z,3.42
2023-05-01T12:01:44.227Z,3.20
2023-05-01T12:04:13.273Z,3.80
2023-05-01T12:06:45.381Z,3.65
2023-05-01T12:09:20.360Z,3.50
2023-05-01T12:11:52.311Z,3.53
2023-05-01T12:14:21.670Z,3.75
2023-05-01T12:16:50.038Z,5.05
2023-05-01T12:19:19.682Z,4.68
2023-05-01T12:21:48.434Z,3.15
2023-05-01T12:24:19.453Z,3.40
2023-05-01T12:26:47.593Z,3.67
2023-05-01T12:29:15.538Z,3.40
2023-05-01T12:31:48.405Z,4.50
2023-05-01T12:34:16.527Z,3.03
2023-05-01T12:36:55.114Z,3.53
2023-05-01T12:39:24.724Z,3.87
2023-05-01T12:41:53.104Z,3.93
2023-05-01T12:44:23.670Z,4.03
2023-05-01T12:46:56.465Z,5.43
2023-05-01T12:49:25.243Z,4.03
2023-05-01T12:51:54.540Z,3.70
2023-05-01T12:54:25.056Z,3.93
2023-05-01T12:56:53.796Z,3.70
2023-05-01T12:59:23.689Z,4.23
2023-05-01T13:01:59.096Z,3.33
2023-05-01T13:04:27.937Z,3.37
2023-05-01T13:06:56.962Z,3.40
2023-05-01T13:09:28.483Z,3.43
2023-05-01T13:12:00.833Z,3.97
2023-05-01T13:14:29.426Z,3.30
2023-05-01T13:16:57.801Z,3.00
2023-05-01T13:19:28.373Z,3.00
2023-05-01T13:21:58.116Z,5.30
2023-05-01T13:24:37.569Z,3.13
2023-05-01T13:27:05.802Z,4.50
2023-05-01T13:29:33.929Z,3.87
2023-05-01T13:32:02.285Z,3.30
2023-05-01T13:34:33.011Z,3.77
2023-05-01T13:37:03.164Z,3.20
2023-05-01T13:39:32.372Z,3.23
2023-05-01T13:42:01.592Z,3.53
2023-05-01T13:44:32.199Z,5.13
2023-05-01T13:47:02.910Z,3.87
2023-05-01T13:49:30.767Z,3.10
2023-05-01T13:51:58.699Z,3.87
2023-05-01T13:54:26.694Z,3.40
2023-05-01T13:56:55.889Z,3.37
2023-05-01T13:59:23.824Z,4.07
2023-05-01T14:01:51.866Z,3.97
2023-05-01T14:04:21.752Z,4.43
2023-05-01T14:06:49.989Z,4.23
2023-05-01T14:09:18.972Z,3.80
2023-05-01T14:11:47.944Z,3.90
2023-05-01T14:14:19.072Z,3.67
2023-05-01T14:16:52.135Z,3.60
2023-05-01T14:19:20.202Z,3.80
2023-05-01T14:21:48.118Z,4.23
2023-05-01T14:24:18.046Z,3.83
2023-05-01T14:26:49.252Z,5.07
2023-05-01T14:29:24.245Z,5.13
2023-05-01T14:31:54.540Z,4.17
2023-05-01T14:34:22.879Z,3.50
2023-05-01T14:36:51.343Z,4.50
2023-05-01T14:39:20.099Z,4.97
2023-05-01T14:41:48.884Z,4.97
2023-05-01T14:44:19.886Z,5.20
2023-05-01T14:46:52.755Z,5.67
2023-05-01T14:49:22.757Z,5.60
2023-05-01T14:51:50.630Z,6.27
2023-05-01T14:54:19.590Z,5.67
2023-05-01T14:56:48.757Z,5.33
2023-05-01T14:59:17.282Z,6.17
2023-05-01T15:01:46.623Z,6.43
2023-05-01T15:04:14.656Z,6.33
2023-05-01T15:06:42.799Z,5.90
2023-05-01T15:09:10.769Z,7.50
2023-05-01T15:11:39.016Z,6.53
2023-05-01T15:14:06.937Z,6.40
2023-05-01T15:16:34.911Z,6.40
2023-05-01T15:19:04.258Z,6.43
2023-05-01T15:21:33.305Z,7.67
2023-05-01T15:24:01.164Z,6.50
2023-05-01T15:26:29.072Z,7.40
2023-05-01T15:28:56.981Z,7.57
2023-05-01T15:31:24.946Z,6.73
2023-05-01T15:33:52.868Z,7.80
2023-05-01T15:36:22.080Z,6.47
2023-05-01T15:38:50.048Z,7.57
2023-05-01T15:41:19.265Z,6.90
2023-05-01T15:43:47.270Z,6.93
2023-05-01T15:46:16.398Z,7.23
2023-05-01T15:48:44.346Z,6.97
2023-05-01T15:51:12.395Z,7.37
2023-05-01T15:53:41.707Z,7.20
2023-05-01T15:56:10.716Z,7.57
2023-05-01T15:58:38.638Z,7.83
2023-05-01T16:01:08.919Z,8.00
2023-05-01T16:03:47.771Z,8.63
2023-05-01T16:06:17.066Z,8.60
2023-05-01T16:08:46.380Z,8.37
2023-05-01T16:11:14.366Z,9.17
2023-05-01T16:13:43.170Z,9.03
2023-05-01T16:16:12.063Z,9.40
2023-05-01T16:18:42.655Z,8.60
2023-05-01T16:21:11.035Z,8.40
2023-05-01T16:23:40.296Z,8.50
2023-05-01T16:26:10.800Z,9.53
2023-05-01T16:28:39.012Z,9.27
2023-05-01T16:31:23.373Z,8.53
2023-05-01T16:33:54.889Z,8.73
2023-05-01T16:36:22.796Z,8.30
2023-05-01T16:38:50.660Z,8.70
2023-05-01T16:41:20.083Z,8.93
2023-05-01T16:43:47.900Z,8.33
2023-05-01T16:46:17.631Z,9.00
2023-05-01T16:48:45.570Z,8.40
2023-05-01T16:51:13.442Z,8.00
2023-05-01T16:53:41.307Z,7.27
2023-05-01T16:56:10.259Z,7.97
2023-05-01T16:58:39.502Z,7.13
2023-05-01T17:01:07.436Z,7.67
2023-05-01T17:03:36.886Z,8.37
2023-05-01T17:06:04.960Z,7.80
2023-05-01T17:08:32.861Z,7.70
2023-05-01T17:11:00.940Z,7.30
2023-05-01T17:13:28.750Z,7.70
2023-05-01T17:15:58.626Z,7.10
2023-05-01T17:18:26.644Z,8.30
2023-05-01T17:20:54.898Z,7.53
2023-05-01T17:23:23.505Z,7.17
2023-05-01T17:25:51.843Z,7.53
2023-05-01T17:28:20.252Z,7.20
2023-05-01T17:30:48.630Z,7.40
2023-05-01T17:33:18.273Z,7.50
2023-05-01T17:35:46.817Z,7.30
2023-05-01T17:38:15.179Z,6.93
2023-05-01T17:40:43.502Z,6.30
2023-05-01T17:43:12.104Z,6.50
2023-05-01T17:45:40.336Z,6.70
2023-05-01T17:48:08.479Z,6.47
2023-05-01T17:50:38.285Z,7.13
2023-05-01T17:53:06.426Z,7.00
2023-05-01T17:55:36.048Z,6.97
2023-05-01T17:58:04.302Z,7.03
2023-05-01T18:00:33.414Z,6.50
2023-05-01T18:03:01.862Z,6.90
2023-05-01T18:05:30.318Z,6.63
2023-05-01T18:08:00.041Z,6.87
2023-05-01T18:10:31.296Z,7.13
2023-05-01T18:12:59.936Z,7.77
2023-05-01T18:15:28.424Z,7.03
2023-05-01T18:17:56.967Z,7.07
2023-05-01T18:20:25.611Z,7.67
2023-05-01T18:22:54.643Z,8.03
2023-05-01T18:25:24.325Z,8.27
2023-05-01T18:27:52.698Z,8.13
2023-05-01T18:30:20.906Z,9.13
2023-05-01T18:32:49.747Z,6.80
2023-05-01T18:35:19.182Z,7.40
2023-05-01T18:37:47.766Z,7.60
2023-05-01T18:40:15.712Z,7.90
2023-05-01T18:42:45.099Z,8.10
2023-05-01T18:45:14.189Z,8.23
2023-05-01T18:47:42.130Z,8.50
2023-05-01T18:50:11.546Z,8.60
2023-05-01T18:52:39.424Z,8.10
2023-05-01T18:55:07.993Z,8.03
2023-05-01T18:57:36.152Z,7.87
2023-05-01T19:00:07.472Z,7.70
2023-05-01T19:02:35.643Z,7.23
2023-05-01T19:05:04.207Z,7.73
2023-05-01T19:07:32.108Z,7.80
2023-05-01T19:10:00.242Z,8.00
2023-05-01T19:12:28.766Z,8.10
2023-05-01T19:14:56.888Z,8.27
2023-05-01T19:17:26.250Z,7.60
2023-05-01T19:19:54.105Z,8.17
2023-05-01T19:22:21.968Z,7.90
2023-05-01T19:24:49.822Z,8.43
2023-05-01T19:27:18.146Z,8.53
2023-05-01T19:29:46.287Z,8.37
2023-05-01T19:32:14.429Z,8.43
2023-05-01T19:34:43.748Z,8.67
2023-05-01T19:37:11.654Z,8.30
2023-05-01T19:39:40.151Z,8.43
2023-05-01T19:42:08.085Z,8.40
2023-05-01T19:44:35.918Z,8.57
2023-05-01T19:47:03.913Z,8.63
2023-05-01T19:49:31.789Z,8.97
2023-05-01T19:52:01.338Z,9.43
2023-05-01T19:54:29.185Z,8.67
2023-05-01T19:56:57.397Z,9.00
2023-05-01T19:59:25.435Z,8.63
2023-05-01T20:01:53.807Z,10.00
2023-05-01T20:04:23.150Z,9.50
2023-05-01T20:06:51.335Z,9.33
2023-05-01T20:09:20.666Z,8.57
2023-05-01T20:11:48.621Z,9.67
2023-05-01T20:14:16.483Z,8.80
2023-05-01T20:16:44.448Z,9.80
2023-05-01T20:19:12.852Z,9.80
2023-05-01T20:21:40.796Z,9.50
2023-05-01T20:24:10.330Z,9.70
2023-05-01T20:26:39.669Z,10.57
2023-05-01T20:29:09.332Z,10.97
2023-05-01T20:31:37.418Z,11.10
2023-05-01T20:34:05.619Z,11.33
2023-05-01T20:36:33.777Z,11.53
2023-05-01T20:39:01.798Z,12.47
2023-05-01T20:41:30.912Z,12.27
2023-05-01T20:44:01.071Z,12.17
2023-05-01T20:46:29.474Z,13.03
2023-05-01T20:48:57.395Z,12.20
2023-05-01T20:51:27.431Z,12.40
2023-05-01T20:53:55.313Z,13.20
2023-05-01T20:56:23.762Z,12.97
2023-05-01T20:58:51.633Z,12.30
2023-05-01T21:01:20.976Z,12.77
2023-05-01T21:03:49.124Z,12.20
2023-05-01T21:06:17.163Z,12.37
2023-05-01T21:08:45.064Z,11.63
2023-05-01T21:11:12.997Z,12.43
2023-05-01T21:13:40.873Z,13.13
2023-05-01T21:16:14.738Z,12.87
2023-05-01T21:18:44.050Z,13.53
2023-05-01T21:21:14.935Z,12.77
2023-05-01T21:23:49.905Z,13.40
2023-05-01T21:26:19.305Z,12.53
2023-05-01T21:28:47.255Z,11.07
2023-05-01T21:31:16.450Z,11.47
2023-05-01T21:33:46.593Z,12.27
2023-05-01T21:36:18.357Z,11.00
2023-05-01T21:38:47.019Z,12.13
2023-05-01T21:41:15.599Z,10.70
2023-05-01T21:43:43.892Z,11.23
2023-05-01T21:46:16.388Z,10.77
2023-05-01T21:48:50.606Z,11.50
2023-05-01T21:51:19.184Z,10.93
2023-05-01T21:53:47.124Z,11.87
2023-05-01T21:56:15.453Z,12.60
2023-05-01T21:58:43.360Z,12.23
2023-05-01T22:01:14.297Z,13.87
2023-05-01T22:03:43.504Z,12.73
2023-05-01T22:06:12.899Z,13.67
2023-05-01T22:08:40.872Z,14.10
2023-05-01T22:11:08.860Z,13.20
2023-05-01T22:13:36.745Z,11.87
2023-05-01T22:16:04.819Z,11.70
2023-05-01T22:18:33.375Z,13.23
2023-05-01T22:21:02.452Z,12.10
2023-05-01T22:23:31.727Z,12.00
2023-05-01T22:26:00.851Z,11.57
2023-05-01T22:28:29.138Z,11.90
2023-05-01T22:30:57.005Z,12.00
2023-05-01T22:33:24.861Z,11.03
2023-05-01T22:35:52.849Z,10.20
2023-05-01T22:38:20.722Z,11.00
2023-05-01T22:40:49.986Z,10.60
2023-05-01T22:43:17.871Z,11.13
2023-05-01T22:45:46.078Z,12.23
2023-05-01T22:48:14.005Z,12.10
2023-05-01T22:50:42.811Z,10.70
2023-05-01T22:53:10.786Z,10.73
2023-05-01T22:55:38.624Z,9.57
2023-05-01T22:58:08.009Z,11.40
2023-05-01T23:00:36.573Z,10.93
2023-05-01T23:03:05.036Z,11.23
2023-05-01T23:05:32.976Z,11.07
2023-05-01T23:08:01.209Z,9.93
2023-05-01T23:10:30.366Z,10.87
2023-05-01T23:12:59.134Z,11.33
2023-05-01T23:15:28.550Z,10.27
2023-05-01T23:17:57.522Z,10.53
2023-05-01T23:20:26.107Z,10.77
2023-05-01T23:22:54.692Z,10.23
2023-05-01T23:25:25.697Z,8.07
2023-05-01T23:27:56.307Z,9.23
2023-05-01T23:30:24.355Z,8.43
2023-05-01T23:32:57.715Z,9.53
2023-05-01T23:35:25.721Z,9.07
2023-05-01T23:37:53.856Z,9.23
2023-05-01T23:40:22.029Z,9.77
2023-05-01T23:42:50.536Z,9.27
2023-05-01T23:45:18.539Z,9.00
2023-05-01T23:47:46.554Z,9.40
2023-05-01T23:50:16.007Z,8.70
2023-05-01T23:52:44.160Z,9.53
2023-05-01T23:55:12.069Z,9.80
2023-05-01T23:57:39.934Z,9.90
